Extreme weather reports worldwide

Lowest temperatures

Station
 
Location
 
Name
 
Wind
Knots
Gust
Knots
Vis
SM
Temp/Dew
C
Baro
inHg
METAR
 
DQH PALP Nuiqsut, US Alpine Airstrip 0 10 -40/-44 30.05 PALP 301705Z 00000KT 10SM SKC M40/M44 A3005
YCK CYVL Colville Lake, CA Tommy Kochon Airport 7 2.5 -40/-44 29.84 CYVL 301705Z AUTO 03007KT 2 1/2SM HZ CLR M40/M44 A2984 RMK SLP165
YGH CYGH Fort Good Hope, CA Fort Good Hope Airport 2 25 -40/-44 29.94 CYGH 301700Z VRB02KT 25SM FEW080 FEW240 M40/M44 A2994 RMK AC1CI1 AC TR CI TR SLP157
NUI PAQT Nuiqsut, US Nuiqsut Airport 5 10 -40/ 30.04 PAQT 301651Z 18005KT 10SM OVC034 M40/ A3004 RMK (SCC FSS)
UUK PAKU Kuparuk, US Ugnu-Kuparuk Airport 5 7 -40/ 30.02 PAKU 301646Z 29005KT 7SM R24/P6000FT SKC M40/ A3002 RMK INDST CNDST

Station
 
Location
 
Name
 
Wind
Knots
Gust
Knots
Vis
SM
Temp/Dew
C
Baro
inHg
METAR
 
ZFM CZFM Fort Mcpherson, CA Fort Mcpherson Airport 4 10 -39/-43 29.99 CZFM 301729Z 16004KT 10SM SKC M39/M43 A2999 RMK SLP163
YVQ CYVQ Norman Wells, CA Norman Wells Airport 0 30 -39/-43 29.95 CYVQ 301700Z 00000KT 30SM FEW080 M39/M43 A2995 RMK AC1 AC TR SLP160
SCC PASC Deadhorse, US Deadhorse Airport 7 7 -39/ 30.00 PASC 301653Z 23007KT 7SM BR FEW013 SCT029 M39/ A3000 RMK AO2 SLP162 PATCHY ICE FOG ALQDS T1394 PNO
PAAD Deadhorse, US Point Thomson Airstrip 9 10 -38/-41 29.99 PAAD 301735Z AUTO 25009KT 10SM OVC023 M38/M41 A2999 RMK AO2 T13801415
PIZ PPIZ Point Lay, US Point Lay LRRS Airport 11 2 -38/ 30.04 PPIZ 301733Z AUTO 04011KT 2SM BR CLR M38/ A3004 RMK AO2 FZRANO PNO $
YWJ CYWJ Déline, CA Déline Airport 2 10 -37/-40 29.88 CYWJ 301700Z VRB02KT 10SM FEW070 M37/M40 A2988 RMK AC1 FG BANK ON GBRLK SLP160
CYUA 5 -37/-42 29.95 CYUA 301700Z AUTO 21005KT 190V300 ////SM OVC021 M37/M42 A2995
LAK CYKD Aklavik, CA Aklavik/Freddie Carmichael Airport 3 15 -37/-40 30.01 CYKD 301700Z 15003KT 15SM SKC M37/M40 A3001 RMK SLP165
FYU PFYU Fort Yukon, US Fort Yukon Airport 0 10 -37/ 29.61 PFYU 301656Z 00000KT 10SM CLR M38/ A2961 RMK AO2 SLP059 T1378
CXDE -36/-40 CXDE 301700Z AUTO M37/M40 RMK AO1 SOG 21 0000 SLP168 T13651401
CWMT 3 -36/-40 CWMT 301700Z AUTO 06003KT M37/M40 RMK AO1 SOG 12 5001 SLP165 T13691404
WLK PASK Selawik, US Selawik Airport 4 10 -36/ 29.67 PASK 301656Z AUTO 28004KT 10SM CLR M36/ A2967 RMK AO2 SLP044 T1361 FZRANO
PYJ UERP Yakutia, RU Polyarny Airport 2 6.21 -35/-37 29.62 UERP 301700Z 10001MPS CAVOK M35/M37 Q1003 R35/450342 NOSIG RMK QFE708
YRA CYRA Gamètì, CA Rae Lakes Airport 3 15 -35/-39 29.94 CYRA 301700Z 19003KT 15SM FEW080 M35/M39 A2994 RMK AC2 SLP180
YEV CYEV Inuvik, CA Inuvik Mike Zubko Airport 2 15 -35/-39 29.97 CYEV 301700Z VRB02KT 15SM FEW250 M35/M39 A2997 RMK CI1 SLP165
ORV PFNO Noorvik, US Robert (Bob) Curtis Memorial Airport 0 10 -35/ 29.66 PFNO 301656Z AUTO 00000KT 10SM CLR M35/ A2966 RMK AO2 SLP136 T1350 FZRANO
ATK PATQ Atqasuk, US Atqasuk Edward Burnell Sr Memorial Airport 7 8 -34/ 30.06 PATQ 301706Z 05007KT 8SM CLR M34/ A3006
GDX UHMM Magadan, RU Sokol Airport 2 6.21 -34/-38 29.82 UHMM 301700Z 10001MPS 9999 NSC M34/M38 Q1010 RMK QFE743 R28/07002MPS
YUB CYUB Tuktoyaktuk, CA Tuktoyaktuk Airport 8 15 -34/-37 29.98 CYUB 301700Z 23008KT 15SM FEW010 M34/M37 A2998 RMK SC2 SLP155
YOC CYOC Old Crow, CA Old Crow Airport 7 15 -34/-39 29.75 CYOC 301700Z 09007KT 15SM FEW230 M34/M39 A2975 RMK CI2 SLP125
CXTV 6 -34/-37 CXTV 301700Z AUTO 26006KT M34/M37 RMK AO1 SOG 24 8001 SLP152 T13411372 50002
CWKM 7 -34/-37 30.00 CWKM 301700Z AUTO 24007KT ////SM NCD M34/M37 A3000
CWEU 0 15 -34/-38 29.78 CWEU 301700Z 00000KT 15SM IC SKC M34/M38 A2978 RMK SLP105
AIN PAWI Wainwright, US Wainwright Airport 9 7 -34/ 30.05 PAWI 301653Z AUTO 07009KT 7SM BKN025 M34/ A3005 RMK AO2 SLP178 T1344 TSNO $
YKS UEEE Yakutsk, RU Yakutsk Airport 2 3.11 -33/-36 30.06 UEEE 301730Z 06001MPS 5000 -SN NSC M33/M36 Q1018 R23L/490150 NOSIG RMK QFE755
MJZ UERR Mirny, RU Mirny Airport 4 6.21 -33/-36 29.70 UERR 301700Z 05002MPS CAVOK M33/M36 Q1006 R25/390234 NOSIG RMK QFE723/0965
CYWE 0 5 -32/-36 29.84 CYWE 301737Z AUTO 00000KT 5SM -SN OVC008 M32/M36 A2984 RMK ICG SLP170
CZEV 2 -32/-35 CZEV 301700Z AUTO 20002KT M32/M36 RMK AO1 SOG 22 6001 SLP160 T13241358
YZF CYZF Yellowknife, CA Yellowknife Airport 7 15 -32/-35 29.89 CYZF 301700Z 04007KT 15SM FEW140 FEW240 M32/M35 A2989 RMK AC1CI1 SLP160
YXQ CYXQ Beaver Creek, CA Beaver Creek Airport 3 30 -32/-35 29.25 CYXQ 301700Z 19003KT 30SM BKN180 M32/M35 A2925 RMK AC7 SLP991
CXTN 7 -32/-35 CXTN 301700Z AUTO 21007KT M33/M36 RMK AO1 SOG 24 0001 SLP131 T13261357
CWVH 6 -32/-35 29.83 CWVH 301700Z AUTO 25006KT ////SM NCD M32/M35 A2983
CWIJ 3 -32/-36 CWIJ 301700Z AUTO 23003KT M33/M37 RMK AO1 SOG 34 3004 SLP132 T13251367
IAN PAIK Kiana, US Bob Baker Memorial Airport 3 10 -32/-35 29.66 PAIK 301656Z AUTO 33003KT 10SM CLR M32/M36 A2966 RMK AO2 SLP051 T13221356 FZRANO
CXSE 0 -31/-35 CXSE 301700Z AUTO 00000KT M32/M35 RMK AO1 1010 SLP036 T13191352 50005
CXDK 0 -31/-34 CXDK 301700Z AUTO 00000KT M31/M35 RMK AO1 SOG 22 8007 SLP120 T13131346
CWLI 9 -31/-34 29.93 CWLI 301700Z AUTO 22009KT ////SM OVC009 M31/M34 A2993
ARC PARC Arctic Village, US Arctic Village Airport 8 10 -31/-34 29.49 PARC 301656Z AUTO 01008KT 10SM CLR M32/M34 A2949 RMK AO2 SLP112 T13171344 FZRANO
BKC PABL Buckland, US Buckland Airport 11 10 -31/-34 29.65 PABL 301656Z AUTO 33011KT 10SM CLR M32/M34 A2965 RMK AO2 SLP043 T13171344 FZRANO
OTZ PAOT Kotzebue, US Ralph Wien Memorial Airport 0 10 -31/-34 29.65 PAOT 301653Z 00000KT 10SM CLR M32/M34 A2965 RMK AO2 SLP040 T13171344
PJA ESUP SE Pajala Airport 2 6.21 -30/-32 29.41 ESUP 301720Z AUTO 22002KT 9999 NCD M30/M32 Q0996
NSK UOOO Norilsk, RU Norilsk-Alykel Airport 10 2.55 -30/-33 29.70 UOOO 301700Z 34005MPS 4100 DRSN BR FEW002 M30/M33 Q1006 R01/39//40 NOSIG RMK QFE740/0987
YPC CYPC Paulatuk, CA Paulatuk (Nora Aliqatchialuk Ruben) Airport 10 15 -30/-34 29.97 CYPC 301700Z 19010KT 15SM FEW080 M30/M34 A2997 RMK AC1 AC TR SLP153
YLT CYLT Alert, CA Alert Airport 6 15 -30/-35 29.74 CYLT 301700Z 27006KT 15SM FEW060 BKN080 M30/M35 A2974 RMK SC2AC3 SLP077
YCO CYCO Kugluktuk, CA Kugluktuk Airport 11 15 -30/-35 29.93 CYCO 301700Z 22011KT 15SM FEW150 M30/M35 A2993 RMK AC1 AC TR SLP140